createdAt,value
2023-04-29T00:00:17.754Z,8.02
2023-04-29T00:02:47.266Z,7.99
2023-04-29T00:05:17.448Z,7.97
2023-04-29T00:07:47.070Z,8.05
2023-04-29T00:10:16.898Z,8.00
2023-04-29T00:12:46.314Z,7.98
2023-04-29T00:15:15.695Z,7.97
2023-04-29T00:17:45.669Z,7.95
2023-04-29T00:20:15.447Z,7.92
2023-04-29T00:22:45.232Z,7.90
2023-04-29T00:25:14.786Z,7.90
2023-04-29T00:27:44.101Z,7.95
2023-04-29T00:30:13.803Z,7.95
2023-04-29T00:32:44.836Z,7.96
2023-04-29T00:35:14.500Z,7.96
2023-04-29T00:37:43.790Z,7.95
2023-04-29T00:40:15.160Z,8.01
2023-04-29T00:42:44.517Z,7.95
2023-04-29T00:45:13.859Z,8.01
2023-04-29T00:47:43.199Z,8.00
2023-04-29T00:50:12.651Z,7.98
2023-04-29T00:52:41.924Z,8.01
2023-04-29T00:55:14.503Z,8.03
2023-04-29T00:57:43.222Z,8.03
2023-04-29T01:00:13.872Z,8.05
2023-04-29T01:02:43.516Z,8.03
2023-04-29T01:05:13.229Z,8.03
2023-04-29T01:07:57.881Z,8.05
2023-04-29T01:10:33.731Z,8.05
2023-04-29T01:13:11.922Z,8.04
2023-04-29T01:15:59.739Z,8.07
2023-04-29T01:18:31.144Z,8.08
2023-04-29T01:21:01.692Z,8.10
2023-04-29T01:23:31.718Z,8.11
2023-04-29T01:26:01.676Z,8.12
2023-04-29T01:28:38.428Z,8.11
2023-04-29T01:31:20.225Z,8.13
2023-04-29T01:34:07.879Z,8.08
2023-04-29T01:36:46.800Z,8.08
2023-04-29T01:39:28.346Z,8.03
2023-04-29T01:42:00.693Z,8.00
2023-04-29T01:44:32.377Z,8.03
2023-04-29T01:47:02.937Z,8.01
2023-04-29T01:49:38.193Z,8.02
2023-04-29T01:52:08.467Z,8.01
2023-04-29T01:54:39.876Z,7.93
2023-04-29T01:57:09.908Z,7.91
2023-04-29T01:59:42.051Z,7.91
2023-04-29T02:02:21.417Z,7.90
2023-04-29T02:04:52.714Z,7.85
2023-04-29T02:07:22.742Z,7.87
2023-04-29T02:09:52.453Z,7.86
2023-04-29T02:12:23.910Z,7.89
2023-04-29T02:14:55.912Z,7.84
2023-04-29T02:17:26.712Z,7.88
2023-04-29T02:19:56.063Z,7.88
2023-04-29T02:22:25.580Z,7.85
2023-04-29T02:24:56.613Z,7.85
2023-04-29T02:27:26.702Z,7.87
2023-04-29T02:29:56.131Z,7.89
2023-04-29T02:32:26.949Z,7.90
2023-04-29T02:34:56.319Z,7.85
2023-04-29T02:37:25.691Z,7.89
2023-04-29T02:39:55.188Z,7.87
2023-04-29T02:42:25.029Z,7.85
2023-04-29T02:44:54.572Z,7.86
2023-04-29T02:47:23.986Z,7.85
2023-04-29T02:49:53.904Z,7.85
2023-04-29T02:52:23.664Z,7.84
2023-04-29T02:54:53.110Z,7.89
2023-04-29T02:57:22.490Z,7.87
2023-04-29T02:59:52.030Z,7.84
2023-04-29T03:02:21.605Z,7.88
2023-04-29T03:04:53.338Z,7.81
2023-04-29T03:07:23.123Z,7.86
2023-04-29T03:09:54.888Z,7.87
2023-04-29T03:12:25.063Z,7.88
2023-04-29T03:14:54.541Z,7.82
2023-04-29T03:17:24.980Z,7.87
2023-04-29T03:19:54.829Z,7.88
2023-04-29T03:22:24.470Z,7.88
2023-04-29T03:24:54.068Z,7.87
2023-04-29T03:27:23.933Z,7.92
2023-04-29T03:29:53.876Z,7.90
2023-04-29T03:32:24.097Z,7.91
2023-04-29T03:34:54.771Z,7.90
2023-04-29T03:37:38.850Z,7.90
2023-04-29T03:40:15.747Z,7.93
2023-04-29T03:42:45.376Z,7.89
2023-04-29T03:45:15.000Z,7.94
2023-04-29T03:47:44.435Z,7.93
2023-04-29T03:50:14.300Z,7.93
2023-04-29T03:52:43.654Z,7.91
2023-04-29T03:55:14.914Z,7.94
2023-04-29T03:57:44.941Z,7.95
2023-04-29T04:00:15.464Z,7.92
2023-04-29T04:02:49.603Z,7.91
2023-04-29T04:05:23.724Z,7.92
2023-04-29T04:07:55.221Z,7.92
2023-04-29T04:10:42.587Z,7.92
2023-04-29T04:13:14.249Z,7.95
2023-04-29T04:15:45.959Z,7.93
2023-04-29T04:18:15.330Z,7.91
2023-04-29T04:20:44.757Z,7.93
2023-04-29T04:23:15.082Z,7.99
2023-04-29T04:25:49.353Z,7.98
2023-04-29T04:28:36.449Z,7.99
2023-04-29T04:31:08.277Z,7.96
2023-04-29T04:33:38.106Z,7.96
2023-04-29T04:36:08.157Z,7.95
2023-04-29T04:38:37.544Z,7.95
2023-04-29T04:41:08.982Z,7.99
2023-04-29T04:43:41.093Z,8.00
2023-04-29T04:46:14.332Z,8.00
2023-04-29T04:48:48.153Z,7.98
2023-04-29T04:51:18.186Z,8.01
2023-04-29T04:53:47.675Z,8.02
2023-04-29T04:56:22.207Z,8.00
2023-04-29T04:58:51.731Z,8.02
2023-04-29T05:01:21.465Z,8.02
2023-04-29T05:03:50.999Z,8.04
2023-04-29T05:06:20.699Z,8.03
2023-04-29T05:08:51.212Z,8.07
2023-04-29T05:11:22.092Z,8.10
2023-04-29T05:13:52.359Z,8.11
2023-04-29T05:16:21.665Z,8.17
2023-04-29T05:18:51.016Z,8.15
2023-04-29T05:21:20.682Z,8.15
2023-04-29T05:23:50.304Z,8.20
2023-04-29T05:26:19.809Z,8.18
2023-04-29T05:28:49.715Z,8.23
2023-04-29T05:31:21.192Z,8.22
2023-04-29T05:33:50.581Z,8.25
2023-04-29T05:36:20.997Z,8.23
2023-04-29T05:38:50.332Z,8.31
2023-04-29T05:41:21.628Z,8.29
2023-04-29T05:43:52.953Z,8.25
2023-04-29T05:46:23.305Z,8.29
2023-04-29T05:48:52.828Z,8.27
2023-04-29T05:51:22.449Z,8.31
2023-04-29T05:53:51.779Z,8.29
2023-04-29T05:56:22.458Z,8.36
2023-04-29T05:58:52.149Z,8.39
2023-04-29T06:01:21.813Z,8.46
2023-04-29T06:03:51.447Z,8.44
2023-04-29T06:06:26.137Z,8.45
2023-04-29T06:08:57.572Z,8.42
2023-04-29T06:11:29.208Z,8.45
2023-04-29T06:13:58.551Z,8.53
2023-04-29T06:16:28.024Z,8.52
2023-04-29T06:18:57.413Z,8.50
2023-04-29T06:21:28.141Z,8.40
2023-04-29T06:23:57.375Z,8.32
2023-04-29T06:26:27.413Z,8.29
2023-04-29T06:28:57.119Z,8.26
2023-04-29T06:31:27.883Z,8.20
2023-04-29T06:33:58.883Z,8.18
2023-04-29T06:36:29.695Z,8.22
2023-04-29T06:39:00.828Z,8.26
2023-04-29T06:41:36.965Z,8.32
2023-04-29T06:44:24.501Z,8.38
2023-04-29T06:46:55.714Z,8.43
2023-04-29T06:49:26.888Z,8.52
2023-04-29T06:51:56.424Z,8.61
2023-04-29T06:54:28.551Z,8.65
2023-04-29T06:56:58.460Z,8.70
2023-04-29T06:59:27.717Z,8.88
2023-04-29T07:01:57.234Z,8.91
2023-04-29T07:04:26.607Z,9.11
2023-04-29T07:06:56.274Z,9.28
2023-04-29T07:09:27.203Z,9.28
2023-04-29T07:11:56.510Z,9.59
2023-04-29T07:14:25.901Z,9.74
2023-04-29T07:16:57.991Z,9.81
2023-04-29T07:19:27.940Z,9.89
2023-04-29T07:21:58.336Z,10.06
2023-04-29T07:24:27.812Z,10.12
2023-04-29T07:26:57.326Z,10.12
2023-04-29T07:29:26.698Z,9.97
2023-04-29T07:31:56.039Z,10.07
2023-04-29T07:34:26.073Z,10.31
2023-04-29T07:36:56.331Z,10.30
2023-04-29T07:39:25.965Z,10.21
2023-04-29T07:41:57.248Z,9.97
2023-04-29T07:44:27.714Z,9.84
2023-04-29T07:46:56.985Z,9.87
2023-04-29T07:49:26.616Z,9.98
2023-04-29T07:51:56.195Z,9.93
2023-04-29T07:54:25.954Z,9.95
2023-04-29T07:56:55.714Z,9.83
2023-04-29T07:59:25.163Z,9.82
2023-04-29T08:01:54.709Z,9.79
2023-04-29T08:04:24.640Z,9.99
2023-04-29T08:07:08.298Z,10.07
2023-04-29T08:09:38.136Z,10.52
2023-04-29T08:12:09.950Z,10.54
2023-04-29T08:14:41.121Z,10.56
2023-04-29T08:17:10.561Z,10.45
2023-04-29T08:19:39.868Z,10.37
2023-04-29T08:22:10.911Z,10.65
2023-04-29T08:24:41.743Z,11.23
2023-04-29T08:27:11.476Z,11.19
2023-04-29T08:29:40.756Z,11.35
2023-04-29T08:32:10.519Z,11.59
2023-04-29T08:34:41.780Z,11.27
2023-04-29T08:37:12.187Z,11.39
2023-04-29T08:39:43.143Z,11.63
2023-04-29T08:42:12.587Z,11.03
2023-04-29T08:44:42.544Z,10.90
2023-04-29T08:47:13.561Z,11.01
2023-04-29T08:49:42.866Z,11.30
2023-04-29T08:52:12.288Z,10.73
2023-04-29T08:54:42.061Z,10.71
2023-04-29T08:57:12.662Z,11.51
2023-04-29T08:59:43.940Z,11.94
2023-04-29T09:02:15.172Z,11.91
2023-04-29T09:05:08.998Z,11.61
2023-04-29T09:07:40.064Z,11.37
2023-04-29T09:10:10.928Z,11.47
2023-04-29T09:12:40.424Z,11.14
2023-04-29T09:15:10.977Z,11.43
2023-04-29T09:17:46.201Z,11.71
2023-04-29T09:20:25.608Z,12.11
2023-04-29T09:22:59.892Z,12.51
2023-04-29T09:25:29.961Z,13.02
2023-04-29T09:27:59.510Z,12.93
2023-04-29T09:30:30.326Z,12.93
2023-04-29T09:33:10.460Z,13.42
2023-04-29T09:35:42.408Z,13.56
2023-04-29T09:38:13.698Z,13.51
2023-04-29T09:40:58.168Z,12.37
2023-04-29T09:43:18.288Z,12.52
2023-04-29T09:45:49.064Z,12.41
2023-04-29T09:48:18.764Z,13.00
2023-04-29T09:50:51.333Z,13.04
2023-04-29T09:53:21.829Z,12.67
2023-04-29T09:56:05.488Z,13.06
2023-04-29T09:58:38.220Z,12.99
2023-04-29T10:01:08.347Z,13.06
2023-04-29T10:03:39.328Z,13.97
2023-04-29T10:06:09.350Z,13.91
2023-04-29T10:08:41.763Z,14.06
2023-04-29T10:11:12.697Z,13.48
2023-04-29T10:13:44.368Z,13.81
2023-04-29T10:16:30.934Z,14.00
2023-04-29T10:19:03.976Z,16.16
2023-04-29T10:21:33.440Z,17.67
2023-04-29T10:24:03.950Z,16.38
2023-04-29T10:26:33.709Z,14.55
2023-04-29T10:29:03.591Z,13.58
2023-04-29T10:31:34.037Z,13.05
2023-04-29T10:34:05.819Z,13.82
2023-04-29T10:36:35.296Z,14.58
2023-04-29T10:39:06.723Z,14.07
2023-04-29T10:41:47.326Z,13.84
2023-04-29T10:44:17.120Z,13.67
2023-04-29T10:46:46.571Z,13.58
2023-04-29T10:49:16.854Z,13.90
2023-04-29T10:51:47.148Z,14.51
2023-04-29T10:54:21.966Z,15.01
2023-04-29T10:56:54.405Z,14.83
2023-04-29T10:59:36.650Z,15.05
2023-04-29T11:02:06.392Z,14.73
2023-04-29T11:04:37.694Z,14.93
2023-04-29T11:07:07.424Z,15.66
2023-04-29T11:09:38.849Z,15.87
2023-04-29T11:12:11.076Z,17.20
2023-04-29T11:14:46.526Z,16.87
2023-04-29T11:17:17.454Z,17.32
2023-04-29T11:19:52.393Z,17.32
2023-04-29T11:22:25.341Z,16.11
2023-04-29T11:25:09.104Z,18.20
2023-04-29T11:27:41.166Z,18.42
2023-04-29T11:30:11.172Z,18.98
2023-04-29T11:32:42.971Z,19.53
2023-04-29T11:35:14.562Z,20.59
2023-04-29T11:37:45.850Z,21.13
2023-04-29T11:40:17.286Z,20.76
2023-04-29T11:42:49.174Z,19.91
2023-04-29T11:45:21.867Z,20.29
2023-04-29T11:47:53.350Z,17.87
2023-04-29T11:50:22.945Z,18.96
2023-04-29T11:52:52.376Z,17.64
2023-04-29T11:55:22.005Z,16.63
2023-04-29T11:57:52.471Z,15.67
2023-04-29T12:00:22.383Z,17.41
2023-04-29T12:02:51.859Z,19.47
2023-04-29T12:05:21.572Z,20.66
2023-04-29T12:07:51.774Z,19.73
2023-04-29T12:10:21.510Z,17.91
2023-04-29T12:12:51.179Z,16.62
2023-04-29T12:15:20.638Z,15.94
2023-04-29T12:17:49.996Z,17.70
2023-04-29T12:20:19.719Z,19.04
2023-04-29T12:22:49.055Z,17.79
2023-04-29T12:25:18.842Z,17.55
2023-04-29T12:27:48.292Z,18.47
2023-04-29T12:30:17.583Z,17.72
2023-04-29T12:32:48.602Z,16.75
2023-04-29T12:35:19.252Z,16.75
2023-04-29T12:37:52.276Z,17.25
2023-04-29T12:40:21.843Z,18.56
2023-04-29T12:42:51.389Z,18.56
2023-04-29T12:45:32.742Z,17.81
2023-04-29T12:48:07.222Z,16.61
2023-04-29T12:50:39.605Z,15.90
2023-04-29T12:53:11.720Z,15.41
2023-04-29T12:55:41.428Z,15.70
2023-04-29T12:58:10.765Z,15.69
2023-04-29T13:00:40.284Z,16.31
2023-04-29T13:03:09.783Z,17.49
2023-04-29T13:05:39.343Z,19.29
2023-04-29T13:08:09.204Z,18.92
2023-04-29T13:10:38.874Z,17.88
2023-04-29T13:19:43.303Z,16.44
2023-04-29T13:21:58.238Z,16.38
2023-04-29T13:24:27.523Z,16.38
2023-04-29T13:26:56.949Z,18.02
2023-04-29T13:29:27.109Z,18.18
2023-04-29T13:31:56.901Z,17.68
2023-04-29T13:34:26.589Z,17.68
2023-04-29T13:37:03.532Z,18.56
2023-04-29T13:39:37.760Z,18.78
2023-04-29T13:42:05.822Z,18.77
2023-04-29T13:44:49.787Z,17.49
2023-04-29T13:47:06.785Z,18.47
2023-04-29T13:50:09.939Z,19.10
2023-04-29T13:52:37.528Z,19.59
2023-04-29T13:54:59.414Z,19.55
2023-04-29T13:59:57.183Z,19.59
2023-04-29T14:02:25.010Z,19.64
2023-04-29T14:04:45.578Z,19.26
2023-04-29T14:07:15.415Z,20.04
2023-04-29T14:09:44.750Z,19.26
2023-04-29T14:12:14.048Z,18.62
2023-04-29T14:14:43.751Z,17.25
2023-04-29T14:17:13.404Z,16.99
2023-04-29T14:23:27.916Z,16.62
2023-04-29T14:26:16.465Z,18.28
2023-04-29T14:28:29.897Z,19.57
2023-04-29T14:30:59.355Z,19.08
2023-04-29T14:33:28.989Z,19.95
2023-04-29T14:35:58.564Z,20.93
2023-04-29T14:38:28.092Z,19.95
2023-04-29T14:40:57.454Z,18.76
2023-04-29T14:43:26.798Z,16.86
2023-04-29T14:45:56.911Z,18.03
2023-04-29T14:48:26.237Z,18.86
2023-04-29T14:50:56.062Z,20.38
2023-04-29T14:53:25.310Z,20.38
2023-04-29T14:55:54.858Z,19.41
2023-04-29T14:58:24.195Z,18.71
2023-04-29T15:00:53.497Z,18.74
2023-04-29T15:03:23.620Z,18.87
2023-04-29T15:05:53.877Z,18.25
2023-04-29T15:08:23.332Z,17.14
2023-04-29T15:10:54.359Z,17.51
2023-04-29T15:13:23.622Z,18.18
2023-04-29T15:15:53.058Z,18.85
2023-04-29T15:18:23.287Z,18.91
2023-04-29T15:20:52.953Z,19.17
2023-04-29T15:23:22.208Z,18.83
2023-04-29T15:25:52.873Z,18.68
2023-04-29T15:28:23.789Z,18.95
2023-04-29T15:30:53.722Z,19.00
2023-04-29T15:33:23.875Z,19.60
2023-04-29T15:35:54.047Z,18.76
2023-04-29T15:38:23.378Z,18.75
2023-04-29T15:40:54.283Z,19.49
2023-04-29T15:43:24.477Z,18.79
2023-04-29T15:45:53.931Z,18.91
2023-04-29T15:48:25.066Z,18.91
2023-04-29T15:50:54.319Z,18.23
2023-04-29T15:53:24.003Z,17.16
2023-04-29T15:55:55.220Z,16.53
2023-04-29T15:58:24.512Z,16.92
2023-04-29T16:00:53.840Z,18.11
2023-04-29T16:03:23.459Z,18.85
2023-04-29T16:05:53.143Z,19.38
2023-04-29T16:08:22.977Z,18.43
2023-04-29T16:10:52.251Z,18.66
2023-04-29T16:13:21.780Z,19.36
2023-04-29T16:15:51.033Z,19.24
2023-04-29T16:18:20.322Z,18.47
2023-04-29T16:20:49.843Z,16.89
2023-04-29T16:23:19.389Z,16.95
2023-04-29T16:25:48.761Z,16.59
2023-04-29T16:28:18.346Z,16.20
2023-04-29T16:30:47.953Z,15.81
2023-04-29T16:33:17.551Z,15.72
2023-04-29T16:35:46.955Z,15.40
2023-04-29T16:38:16.553Z,14.95
2023-04-29T16:40:45.873Z,14.68
2023-04-29T16:43:15.521Z,14.67
2023-04-29T16:45:46.365Z,15.28
2023-04-29T16:48:15.626Z,16.48
2023-04-29T16:50:45.138Z,17.24
2023-04-29T16:53:14.419Z,17.69
2023-04-29T16:55:43.695Z,17.33
2023-04-29T16:58:13.228Z,17.00
2023-04-29T17:00:42.494Z,16.81
2023-04-29T17:03:11.833Z,17.05
2023-04-29T17:05:41.721Z,17.22
2023-04-29T17:08:11.510Z,17.26
2023-04-29T17:10:41.650Z,17.00
2023-04-29T17:13:10.974Z,16.54
2023-04-29T17:15:40.847Z,15.90
2023-04-29T17:18:10.220Z,15.62
2023-04-29T17:20:39.838Z,15.48
2023-04-29T17:23:09.125Z,15.13
2023-04-29T17:25:39.075Z,15.09
2023-04-29T17:28:08.613Z,14.89
2023-04-29T17:30:38.100Z,14.68
2023-04-29T17:33:07.492Z,14.30
2023-04-29T17:35:37.034Z,14.10
2023-04-29T17:38:06.265Z,13.84
2023-04-29T17:40:36.089Z,13.67
2023-04-29T17:43:05.799Z,13.65
2023-04-29T17:45:35.720Z,13.47
2023-04-29T17:48:05.181Z,13.40
2023-04-29T17:50:34.690Z,13.24
2023-04-29T17:53:03.974Z,13.12
2023-04-29T17:55:33.483Z,12.95
2023-04-29T17:58:02.963Z,12.81
2023-04-29T18:00:32.396Z,12.85
2023-04-29T18:03:02.716Z,12.77
2023-04-29T18:05:32.251Z,12.65
2023-04-29T18:08:01.629Z,12.62
2023-04-29T18:10:31.458Z,12.57
2023-04-29T18:13:02.585Z,12.42
2023-04-29T18:15:32.528Z,12.30
2023-04-29T18:18:01.860Z,12.29
2023-04-29T18:20:33.077Z,12.19
2023-04-29T18:23:02.739Z,12.18
2023-04-29T18:25:32.074Z,12.12
2023-04-29T18:28:18.845Z,12.05
2023-04-29T18:30:33.783Z,11.96
2023-04-29T18:33:03.560Z,11.91
2023-04-29T18:35:33.445Z,11.73
2023-04-29T18:38:03.727Z,11.75
2023-04-29T18:40:33.011Z,11.69
2023-04-29T18:43:02.370Z,11.59
2023-04-29T18:45:31.715Z,11.39
2023-04-29T18:48:03.065Z,11.45
2023-04-29T18:50:32.521Z,11.24
2023-04-29T18:53:02.973Z,11.18
2023-04-29T18:55:32.252Z,11.11
2023-04-29T18:58:01.576Z,10.94
2023-04-29T19:00:30.851Z,10.92
2023-04-29T19:03:00.522Z,10.95
2023-04-29T19:05:32.660Z,10.81
2023-04-29T19:08:01.981Z,10.74
2023-04-29T19:10:31.361Z,10.71
2023-04-29T19:13:01.083Z,10.60
2023-04-29T19:15:32.163Z,10.45
2023-04-29T19:18:01.817Z,10.47
2023-04-29T19:20:31.190Z,10.33
2023-04-29T19:23:00.544Z,10.24
2023-04-29T19:25:31.980Z,10.11
2023-04-29T19:28:01.270Z,10.03
2023-04-29T19:30:30.731Z,9.91
2023-04-29T19:33:00.005Z,9.88
2023-04-29T19:35:29.722Z,9.81
2023-04-29T19:37:58.996Z,9.77
2023-04-29T19:40:28.499Z,9.77
2023-04-29T19:42:58.154Z,9.71
2023-04-29T19:45:27.815Z,9.56
2023-04-29T19:47:58.805Z,9.47
2023-04-29T19:50:29.365Z,9.40
2023-04-29T19:52:59.610Z,9.28
2023-04-29T19:55:29.111Z,9.29
2023-04-29T19:57:58.765Z,9.22
2023-04-29T20:00:28.367Z,9.17
2023-04-29T20:02:57.718Z,9.13
2023-04-29T20:05:28.431Z,8.98
2023-04-29T20:07:57.758Z,8.91
2023-04-29T20:10:29.755Z,8.89
2023-04-29T20:12:58.143Z,8.91
2023-04-29T20:15:27.527Z,8.77
2023-04-29T20:17:58.326Z,8.78
2023-04-29T20:20:28.013Z,8.71
2023-04-29T20:22:59.013Z,8.69
2023-04-29T20:25:28.800Z,8.57
2023-04-29T20:27:58.837Z,8.55
2023-04-29T20:30:28.239Z,8.48
2023-04-29T20:32:57.736Z,8.46
2023-04-29T20:35:27.596Z,8.45
2023-04-29T20:37:57.378Z,8.42
2023-04-29T20:40:26.676Z,8.33
2023-04-29T20:42:56.183Z,8.32
2023-04-29T20:45:25.726Z,8.12
2023-04-29T20:47:55.156Z,8.07
2023-04-29T20:50:24.744Z,7.99
2023-04-29T20:52:54.390Z,7.87
2023-04-29T20:55:23.900Z,7.85
2023-04-29T20:57:53.683Z,7.82
2023-04-29T21:00:23.169Z,7.77
2023-04-29T21:02:52.494Z,7.77
2023-04-29T21:05:22.104Z,7.68
2023-04-29T21:07:51.403Z,7.62
2023-04-29T21:10:23.255Z,7.59
2023-04-29T21:12:52.534Z,7.51
2023-04-29T21:15:22.092Z,7.48
2023-04-29T21:17:51.436Z,7.40
2023-04-29T21:20:21.418Z,7.38
2023-04-29T21:22:50.942Z,7.34
2023-04-29T21:25:20.298Z,7.27
2023-04-29T21:27:52.567Z,7.21
2023-04-29T21:30:22.003Z,7.17
2023-04-29T21:32:52.249Z,7.10
2023-04-29T21:35:22.368Z,7.06
2023-04-29T21:37:51.660Z,6.98
2023-04-29T21:40:21.525Z,6.99
2023-04-29T21:42:51.152Z,7.03
2023-04-29T21:45:20.691Z,6.98
2023-04-29T21:47:50.868Z,7.05
2023-04-29T21:50:20.803Z,7.09
2023-04-29T21:52:50.634Z,7.05
2023-04-29T21:55:20.119Z,6.99
2023-04-29T21:57:49.821Z,6.95
2023-04-29T22:00:23.621Z,6.92
2023-04-29T22:02:53.314Z,6.91
2023-04-29T22:05:22.624Z,6.89
2023-04-29T22:07:52.236Z,6.85
2023-04-29T22:10:21.633Z,6.85
2023-04-29T22:12:51.156Z,6.76
2023-04-29T22:15:28.032Z,6.72
2023-04-29T22:17:51.620Z,6.60
2023-04-29T22:20:21.085Z,6.59
2023-04-29T22:22:51.348Z,6.61
2023-04-29T22:25:21.942Z,6.58
2023-04-29T22:27:52.018Z,6.54
2023-04-29T22:30:21.301Z,6.51
2023-04-29T22:32:51.294Z,6.51
2023-04-29T22:35:20.697Z,6.46
2023-04-29T22:37:50.692Z,6.35
2023-04-29T22:40:20.035Z,6.36
2023-04-29T22:42:49.357Z,6.37
2023-04-29T22:45:18.707Z,6.37
2023-04-29T22:47:48.072Z,6.40
2023-04-29T22:50:17.482Z,6.38
2023-04-29T22:52:47.150Z,6.38
2023-04-29T22:55:16.516Z,6.37
2023-04-29T22:57:45.816Z,6.39
2023-04-29T23:00:15.900Z,6.39
2023-04-29T23:02:45.468Z,6.39
2023-04-29T23:05:15.312Z,6.37
2023-04-29T23:07:44.606Z,6.34
2023-04-29T23:10:14.125Z,6.39
2023-04-29T23:12:43.535Z,6.35
2023-04-29T23:15:12.905Z,6.34
2023-04-29T23:17:42.539Z,6.34
2023-04-29T23:20:13.111Z,6.37
2023-04-29T23:22:42.729Z,6.33
2023-04-29T23:25:12.014Z,6.27
2023-04-29T23:27:41.592Z,6.29
2023-04-29T23:30:11.213Z,6.24
2023-04-29T23:32:40.856Z,6.13
2023-04-29T23:35:12.437Z,6.15
2023-04-29T23:37:41.991Z,6.17
2023-04-29T23:40:11.936Z,6.17
2023-04-29T23:42:41.233Z,6.05
2023-04-29T23:45:10.772Z,6.04
2023-04-29T23:47:40.092Z,6.02
2023-04-29T23:50:10.548Z,6.05
2023-04-29T23:52:39.889Z,6.04
2023-04-29T23:55:10.681Z,6.04
2023-04-29T23:57:40.020Z,6.05
